Time;durP1;ratioP1;P1;durP2;ratioP2;P2;SDS_P1;SDS_P2;PMS_P1;PMS_P2;Temp;Humidity;BMP_temperature;BMP_pressure;BME280_temperature;BME280_humidity;BME280_pressure;Samples;Min_cycle;Max_cycle;Signal;HPM_P1;HPM_P2
2022/09/16 00:00:56;;;;;;;3.10;2.05;;;;;;;26.34;58.32;97975.81;2054716;28;20400;-56
2022/09/16 00:01:57;;;;;;;6.45;2.22;;;;;;;26.33;58.59;97972.28;2059362;28;20104;-54
2022/09/16 00:02:59;;;;;;;6.47;1.92;;;;;;;26.32;58.91;97973.34;2061622;28;20046;-52
2022/09/16 00:04:00;;;;;;;10.43;2.22;;;;;;;26.31;58.86;97977.16;2061897;28;20060;-57
2022/09/16 00:05:01;;;;;;;6.00;2.28;;;;;;;26.32;58.54;97967.91;2060944;28;20050;-49
2022/09/16 00:06:03;;;;;;;6.18;2.17;;;;;;;26.30;58.71;97965.47;2060671;28;20066;-51
2022/09/16 00:07:04;;;;;;;3.78;2.35;;;;;;;26.34;58.68;97967.66;2062799;28;20041;-53
2022/09/16 00:08:05;;;;;;;7.03;2.05;;;;;;;26.34;58.37;97962.22;2061431;28;20078;-55
2022/09/16 00:09:07;;;;;;;5.22;3.42;;;;;;;26.33;58.37;97961.41;2061960;28;20045;-55
2022/09/16 00:10:08;;;;;;;6.55;3.17;;;;;;;26.32;58.29;97964.38;2058781;28;20053;-55
2022/09/16 00:11:10;;;;;;;4.65;1.80;;;;;;;26.34;58.61;97964.94;2063134;28;20042;-52
2022/09/16 00:12:13;;;;;;;6.43;2.70;;;;;;;26.33;58.55;97966.84;2063268;28;20105;-52
2022/09/16 00:13:14;;;;;;;3.03;2.25;;;;;;;26.34;58.81;97965.75;2063179;28;20100;-57
2022/09/16 00:14:16;;;;;;;5.28;1.92;;;;;;;26.32;58.86;97956.22;2061130;28;20104;-53
2022/09/16 00:15:17;;;;;;;5.45;2.30;;;;;;;26.30;58.42;97953.78;2061460;28;20042;-58
2022/09/16 00:16:20;;;;;;;8.65;2.28;;;;;;;26.34;58.71;97959.50;2063360;28;20617;-54
2022/09/16 00:17:22;;;;;;;7.35;1.70;;;;;;;26.33;58.38;97961.41;2063599;28;20046;-54
2022/09/16 00:18:24;;;;;;;5.65;2.10;;;;;;;26.31;58.28;97952.69;2062340;28;22739;-55
2022/09/16 00:19:24;;;;;;;8.15;2.15;;;;;;;26.30;59.01;97946.44;2064791;28;20081;-57
2022/09/16 00:20:26;;;;;;;11.30;2.20;;;;;;;26.33;58.74;97950.53;2062464;28;20515;-55
2022/09/16 00:21:28;;;;;;;5.53;2.28;;;;;;;26.32;58.31;97953.50;2064254;28;20951;-49
2022/09/16 00:22:30;;;;;;;5.82;2.00;;;;;;;26.32;58.33;97951.59;2060250;28;20215;-56
2022/09/16 00:23:31;;;;;;;2.85;1.63;;;;;;;26.32;58.33;97946.16;2065879;28;20057;-56
2022/09/16 00:24:32;;;;;;;5.30;2.00;;;;;;;26.31;58.35;97949.97;2051367;28;20103;-55
2022/09/16 00:25:33;;;;;;;3.65;1.75;;;;;;;26.30;58.33;97948.34;2062708;28;20825;-54
2022/09/16 00:26:37;;;;;;;4.75;1.77;;;;;;;26.32;58.41;97943.44;2063407;28;20053;-49
2022/09/16 00:27:39;;;;;;;3.17;1.60;;;;;;;26.32;58.26;97938.00;2059561;28;20058;-54
2022/09/16 00:28:41;;;;;;;7.70;2.50;;;;;;;26.29;58.86;97933.94;2063711;28;20081;-54
2022/09/16 00:29:42;;;;;;;5.60;2.35;;;;;;;26.28;58.52;97936.94;2063801;28;20054;-51
2022/09/16 00:30:43;;;;;;;6.15;2.42;;;;;;;26.31;58.73;97944.53;2060019;28;20537;-55
2022/09/16 00:31:44;;;;;;;3.75;1.48;;;;;;;26.26;58.95;97925.50;2064868;28;20544;-53
2022/09/16 00:32:46;;;;;;;7.22;2.28;;;;;;;26.29;58.57;97925.78;2064227;28;20057;-51
2022/09/16 00:33:46;;;;;;;5.38;1.60;;;;;;;26.30;58.47;97921.16;2061935;28;20598;-54
2022/09/16 00:34:48;;;;;;;7.25;2.13;;;;;;;26.28;58.73;97918.72;2061579;28;20108;-56
2022/09/16 00:35:49;;;;;;;7.75;1.88;;;;;;;26.32;58.83;97920.88;2063282;28;20049;-51
2022/09/16 00:36:50;;;;;;;4.50;2.00;;;;;;;26.31;58.34;97917.34;2059576;28;20554;-51
2022/09/16 00:37:51;;;;;;;5.75;2.25;;;;;;;26.29;58.79;97920.34;2062793;28;20490;-57
2022/09/16 00:38:54;;;;;;;5.65;3.22;;;;;;;26.29;58.50;97924.97;2062788;28;20050;-50
2022/09/16 00:39:55;;;;;;;4.15;2.17;;;;;;;26.29;58.62;97919.53;2064510;28;20061;-55
2022/09/16 00:40:57;;;;;;;5.40;2.15;;;;;;;26.29;58.40;97917.63;2062631;28;20569;-50
2022/09/16 00:41:57;;;;;;;3.75;2.00;;;;;;;26.30;58.34;97913.81;2065763;28;20628;-52
2022/09/16 00:43:00;;;;;;;4.85;2.55;;;;;;;26.32;58.03;97924.41;2064410;28;20112;-53
2022/09/16 00:44:05;;;;;;;5.60;2.92;;;;;;;26.32;58.27;97913.53;2060431;28;20054;-56
2022/09/16 00:45:13;;;;;;;7.85;2.70;;;;;;;26.31;58.49;97911.91;2062344;28;20050;-55
2022/09/16 00:46:17;;;;;;;5.63;2.13;;;;;;;26.29;58.41;97906.75;2061475;28;20046;-51
2022/09/16 00:47:24;;;;;;;6.63;2.00;;;;;;;26.27;58.45;97908.94;2063250;28;20355;-52
2022/09/16 00:48:28;;;;;;;6.53;1.90;;;;;;;26.29;58.32;97914.09;2065412;28;20081;-51
2022/09/16 00:49:30;;;;;;;6.30;1.95;;;;;;;26.30;58.36;97911.09;2065288;28;20057;-59
2022/09/16 00:50:37;;;;;;;5.60;2.17;;;;;;;26.31;58.48;97920.06;2067239;28;20046;-52
2022/09/16 00:51:39;;;;;;;4.13;1.85;;;;;;;26.28;58.42;97912.47;2062850;28;20521;-51
2022/09/16 00:52:42;;;;;;;5.30;2.85;;;;;;;26.31;57.96;97914.63;2061281;28;20074;-53
2022/09/16 00:53:48;;;;;;;8.73;2.20;;;;;;;26.32;58.68;97918.16;2065054;28;21314;-52
2022/09/16 00:54:50;;;;;;;5.38;1.90;;;;;;;26.29;58.51;97912.19;2064728;28;20489;-56
2022/09/16 00:55:53;;;;;;;9.25;3.03;;;;;;;26.30;58.62;97915.72;2057566;28;20546;-53
2022/09/16 00:56:58;;;;;;;4.25;2.10;;;;;;;26.26;58.23;97914.63;2061545;28;20045;-50
2022/09/16 00:58:06;;;;;;;7.13;2.33;;;;;;;26.28;58.42;97913.28;2065169;28;20059;-49
2022/09/16 00:59:14;;;;;;;3.67;1.55;;;;;;;26.26;58.22;97909.19;2061295;28;20092;-53
2022/09/16 01:00:15;;;;;;;3.60;1.75;;;;;;;26.28;58.16;97901.59;2061907;28;20050;-50
2022/09/16 01:01:17;;;;;;;5.07;2.22;;;;;;;26.28;58.41;97907.03;2063160;28;20611;-53
2022/09/16 01:02:20;;;;;;;6.93;2.35;;;;;;;26.29;58.56;97905.94;2064101;28;20050;-49
2022/09/16 01:03:22;;;;;;;4.90;2.50;;;;;;;26.28;58.36;97910.56;2063115;28;20046;-51
2022/09/16 01:04:28;;;;;;;4.13;1.73;;;;;;;26.27;58.19;97908.09;2057679;28;20054;-55
2022/09/16 01:05:30;;;;;;;5.10;1.75;;;;;;;26.27;58.41;97908.94;2065051;28;20564;-55
2022/09/16 01:06:33;;;;;;;5.35;2.15;;;;;;;26.27;58.21;97910.81;2065055;28;20075;-52
2022/09/16 01:07:39;;;;;;;7.75;2.10;;;;;;;26.27;58.43;97913.53;2064792;28;20046;-57
2022/09/16 01:08:42;;;;;;;5.20;2.17;;;;;;;26.25;58.64;97907.56;2061651;28;20506;-52
2022/09/16 01:09:44;;;;;;;6.47;2.03;;;;;;;26.26;58.09;97911.91;2063010;28;20061;-58
2022/09/16 01:10:44;;;;;;;6.00;2.83;;;;;;;26.26;58.39;97910.00;2066771;28;20056;-52
2022/09/16 01:11:46;;;;;;;5.97;2.10;;;;;;;26.27;57.98;97908.09;2064170;28;20050;-54
2022/09/16 01:12:50;;;;;;;3.40;2.00;;;;;;;26.27;58.30;97911.66;2061031;28;20101;-54
2022/09/16 01:13:54;;;;;;;4.45;1.73;;;;;;;26.26;58.63;97911.91;2052080;28;20161;-54
2022/09/16 01:14:57;;;;;;;9.07;2.20;;;;;;;26.26;58.54;97920.06;2059946;28;20557;-52
2022/09/16 01:16:04;;;;;;;4.90;1.92;;;;;;;26.26;58.27;97911.91;2063866;28;20158;-51
2022/09/16 01:17:14;;;;;;;5.80;2.35;;;;;;;26.25;58.60;97913.00;2061849;28;20538;-59
2022/09/16 01:18:25;;;;;;;6.57;2.40;;;;;;;26.22;58.16;97910.84;2052461;28;20128;-55
2022/09/16 01:19:49;;;;;;;4.68;1.80;;;;;;;26.20;58.70;97915.72;2063154;28;20057;-54
2022/09/16 01:21:03;;;;;;;3.80;1.90;;;;;;;26.19;58.51;97914.09;2062237;28;20065;-57
2022/09/16 01:22:19;;;;;;;8.70;1.95;;;;;;;26.18;58.73;97912.44;2060492;28;20062;-55
2022/09/16 01:24:03;;;;;;;4.63;1.90;;;;;;;26.14;58.71;97916.81;2060688;28;20054;-52
2022/09/16 01:25:15;;;;;;;5.70;2.22;;;;;;;26.16;58.68;97914.63;2056625;28;20042;-54
2022/09/16 01:26:41;;;;;;;7.43;2.20;;;;;;;26.16;58.39;97911.91;2061810;28;20069;-52
2022/09/16 01:28:10;;;;;;;4.75;2.35;;;;;;;26.16;58.89;97911.91;2053290;28;20391;-55
2022/09/16 01:29:32;;;;;;;3.80;1.50;;;;;;;26.17;58.74;97916.25;2062884;28;20050;-51
2022/09/16 01:30:51;;;;;;;4.47;2.33;;;;;;;26.19;58.36;97908.66;2062443;28;20050;-53
2022/09/16 01:31:58;;;;;;;6.20;1.85;;;;;;;26.22;58.19;97908.13;2058292;28;20588;-52
2022/09/16 01:33:04;;;;;;;4.13;2.60;;;;;;;26.22;58.53;97914.38;2063693;28;20050;-55
2022/09/16 01:34:17;;;;;;;7.20;2.25;;;;;;;26.21;58.64;97903.75;2063719;28;20046;-51
2022/09/16 01:35:29;;;;;;;3.78;1.88;;;;;;;26.22;58.24;97908.13;2061704;28;20542;-56
2022/09/16 01:36:40;;;;;;;5.50;2.00;;;;;;;26.22;58.01;97908.94;2061885;28;20367;-55
2022/09/16 01:37:52;;;;;;;7.57;2.80;;;;;;;26.20;58.76;97907.56;2066180;28;20130;-56
2022/09/16 01:39:07;;;;;;;4.97;1.88;;;;;;;26.21;58.08;97907.28;2065050;28;20107;-49
2022/09/16 01:40:16;;;;;;;5.05;1.95;;;;;;;26.22;58.15;97905.41;2061140;28;20078;-53
2022/09/16 01:41:27;;;;;;;6.68;2.47;;;;;;;26.21;58.59;97904.56;2062200;28;20062;-55
2022/09/16 01:42:37;;;;;;;4.32;1.83;;;;;;;26.21;58.56;97909.19;2060889;28;20572;-54
2022/09/16 01:43:45;;;;;;;5.72;1.75;;;;;;;26.20;58.27;97897.50;2062653;28;20058;-55
2022/09/16 01:44:53;;;;;;;4.75;2.15;;;;;;;26.22;58.26;97902.69;2062183;28;20073;-56
2022/09/16 01:45:59;;;;;;;4.43;1.23;;;;;;;26.22;58.13;97908.94;2064634;28;20058;-55
2022/09/16 01:47:07;;;;;;;6.00;1.95;;;;;;;26.23;58.58;97896.16;2059938;28;20061;-59
2022/09/16 01:48:16;;;;;;;6.82;2.28;;;;;;;26.22;58.62;97902.69;2062144;28;20899;-51
2022/09/16 01:49:23;;;;;;;3.20;1.92;;;;;;;26.22;58.42;97902.69;2061778;28;20060;-50
2022/09/16 01:50:28;;;;;;;3.92;1.80;;;;;;;26.21;58.25;97909.19;2063857;28;20054;-54
2022/09/16 01:51:36;;;;;;;7.05;2.03;;;;;;;26.23;58.38;97910.56;2064581;28;20433;-51
2022/09/16 01:52:45;;;;;;;8.90;2.63;;;;;;;26.20;58.12;97910.28;2056829;28;20046;-52
2022/09/16 01:53:54;;;;;;;6.30;2.10;;;;;;;26.22;57.92;97902.69;2063142;28;20426;-50
2022/09/16 01:55:00;;;;;;;7.53;2.22;;;;;;;26.21;57.97;97907.28;2065745;28;20096;-52
2022/09/16 01:56:09;;;;;;;4.95;2.42;;;;;;;26.21;58.12;97907.28;2059115;28;20137;-48
2022/09/16 01:57:16;;;;;;;4.32;2.08;;;;;;;26.21;58.03;97912.72;2061338;28;20537;-54
2022/09/16 01:58:22;;;;;;;3.15;1.75;;;;;;;26.21;58.08;97901.84;2059412;28;20893;-55
2022/09/16 01:59:30;;;;;;;8.27;2.67;;;;;;;26.22;58.03;97908.13;2064361;28;20085;-54
2022/09/16 02:00:33;;;;;;;4.47;2.30;;;;;;;26.22;58.01;97906.22;2060713;28;20104;-50
2022/09/16 02:01:40;;;;;;;5.18;1.92;;;;;;;26.23;57.84;97901.59;2059513;28;20054;-48
2022/09/16 02:02:48;;;;;;;5.20;2.00;;;;;;;26.22;57.96;97908.13;2062909;28;20053;-57
2022/09/16 02:03:57;;;;;;;3.45;2.03;;;;;;;26.22;58.16;97906.22;2061658;28;20065;-54
2022/09/16 02:05:03;;;;;;;4.57;2.03;;;;;;;26.20;58.04;97900.22;2062439;28;20084;-49
2022/09/16 02:06:07;;;;;;;8.95;2.55;;;;;;;26.22;58.08;97902.69;2060605;28;20515;-58
2022/09/16 02:07:11;;;;;;;7.72;1.95;;;;;;;26.21;57.57;97903.75;2063592;28;20052;-53
2022/09/16 02:08:16;;;;;;;8.25;2.60;;;;;;;26.18;57.74;97896.13;2065518;28;20110;-51
2022/09/16 02:09:22;;;;;;;5.80;2.20;;;;;;;26.20;57.97;97893.97;2062046;28;20077;-55
2022/09/16 02:10:27;;;;;;;7.22;2.95;;;;;;;26.20;57.82;97904.84;2058630;28;20675;-52
2022/09/16 02:11:29;;;;;;;4.97;1.65;;;;;;;26.21;57.96;97901.03;2060517;28;20046;-56
2022/09/16 02:12:33;;;;;;;7.38;1.73;;;;;;;26.21;57.68;97898.31;2059125;28;20047;-57
2022/09/16 02:13:39;;;;;;;4.50;2.08;;;;;;;26.20;57.57;97902.94;2061077;28;20074;-54
2022/09/16 02:14:44;;;;;;;4.75;2.22;;;;;;;26.21;57.85;97901.03;2063155;28;20049;-56
2022/09/16 02:15:49;;;;;;;4.00;1.75;;;;;;;26.23;57.91;97898.88;2062921;28;20046;-51
2022/09/16 02:16:56;;;;;;;4.70;1.70;;;;;;;26.19;57.80;97897.78;2062158;28;20704;-55
2022/09/16 02:18:04;;;;;;;4.88;1.80;;;;;;;26.21;58.03;97890.16;2061945;28;20050;-52
2022/09/16 02:19:09;;;;;;;3.92;1.80;;;;;;;26.21;58.09;97892.88;2062320;28;20058;-52
2022/09/16 02:20:14;;;;;;;4.18;1.92;;;;;;;26.22;58.02;97892.63;2058723;28;20053;-49
2022/09/16 02:21:18;;;;;;;2.55;1.40;;;;;;;26.17;57.69;97887.19;2060557;28;20097;-55
2022/09/16 02:22:25;;;;;;;4.60;2.03;;;;;;;26.19;58.13;97892.34;2062964;28;20610;-49
2022/09/16 02:23:32;;;;;;;6.40;1.95;;;;;;;26.18;58.17;97885.28;2060534;28;20609;-56
2022/09/16 02:24:34;;;;;;;5.13;2.13;;;;;;;26.19;57.72;97887.72;2061397;28;20054;-55
2022/09/16 02:25:39;;;;;;;4.75;2.10;;;;;;;26.17;58.17;97889.09;2058855;28;20058;-58
2022/09/16 02:26:43;;;;;;;6.10;2.20;;;;;;;26.19;57.76;97889.63;2054696;28;20094;-55
2022/09/16 02:27:49;;;;;;;6.03;2.85;;;;;;;26.17;57.67;97889.09;2062426;28;20104;-52
2022/09/16 02:28:52;;;;;;;5.03;2.47;;;;;;;26.15;58.00;97886.63;2057387;28;20061;-55
2022/09/16 02:30:00;;;;;;;3.63;1.40;;;;;;;26.18;57.54;97888.00;2060976;28;20756;-53
2022/09/16 02:31:04;;;;;;;4.97;1.92;;;;;;;26.18;57.49;97886.06;2062236;28;20145;-55
2022/09/16 02:32:10;;;;;;;4.38;1.50;;;;;;;26.19;57.81;97881.47;2062238;28;20058;-53
2022/09/16 02:33:15;;;;;;;5.55;1.70;;;;;;;26.17;58.12;97884.47;2063712;28;20037;-50
2022/09/16 02:34:20;;;;;;;5.43;1.80;;;;;;;26.17;57.81;97878.22;2055863;28;20050;-53
2022/09/16 02:35:24;;;;;;;3.88;1.90;;;;;;;26.17;57.48;97883.66;2059350;28;20057;-57
2022/09/16 02:36:27;;;;;;;7.82;2.30;;;;;;;26.18;57.67;97888.00;2059512;28;20050;-55
2022/09/16 02:37:32;;;;;;;5.63;2.28;;;;;;;26.18;57.99;97885.28;2063222;28;20061;-55
2022/09/16 02:38:40;;;;;;;3.78;1.60;;;;;;;26.17;57.70;97884.47;2063181;28;20060;-53
2022/09/16 02:39:45;;;;;;;6.68;2.13;;;;;;;26.17;57.69;97879.03;2063336;28;20110;-50
2022/09/16 02:40:50;;;;;;;2.95;1.88;;;;;;;26.17;57.83;97881.75;2060729;28;20104;-53
2022/09/16 02:41:54;;;;;;;3.17;2.20;;;;;;;26.18;57.84;97874.41;2063004;28;20057;-51
2022/09/16 02:42:57;;;;;;;4.15;2.28;;;;;;;26.18;57.54;97879.84;2058829;28;20054;-54
2022/09/16 02:43:59;;;;;;;2.95;1.65;;;;;;;26.19;57.92;97878.75;2062195;28;20490;-55
2022/09/16 02:45:01;;;;;;;5.93;1.92;;;;;;;26.18;57.55;97872.50;2061145;28;20054;-55
2022/09/16 02:46:11;;;;;;;4.35;1.55;;;;;;;26.19;57.87;97876.84;2060557;28;20108;-49
2022/09/16 02:47:21;;;;;;;3.40;1.45;;;;;;;26.20;57.35;97872.22;2058130;28;20916;-54
2022/09/16 02:48:35;;;;;;;5.90;2.03;;;;;;;26.17;57.99;97883.66;2060730;28;20422;-57
2022/09/16 02:49:42;;;;;;;3.47;2.13;;;;;;;26.17;57.67;97872.78;2063965;28;20062;-53
2022/09/16 02:50:50;;;;;;;7.78;2.00;;;;;;;26.15;58.03;97869.50;2060925;28;20413;-52
2022/09/16 02:51:57;;;;;;;5.65;2.13;;;;;;;26.14;57.81;97876.84;2050002;28;20893;-51
2022/09/16 02:53:02;;;;;;;3.78;1.77;;;;;;;26.15;57.34;97872.22;2058531;28;20057;-50
2022/09/16 02:54:09;;;;;;;4.70;1.60;;;;;;;26.17;57.43;97867.34;2059781;28;20065;-57
2022/09/16 02:55:20;;;;;;;4.10;1.48;;;;;;;26.17;57.61;97872.78;2059253;28;20061;-51
2022/09/16 02:56:24;;;;;;;7.90;2.83;;;;;;;26.16;57.58;97868.41;2057763;28;20057;-56
2022/09/16 02:57:27;;;;;;;4.15;2.13;;;;;;;26.15;57.57;97864.88;2058346;28;20499;-56
2022/09/16 02:58:28;;;;;;;1.75;1.40;;;;;;;26.16;57.71;97868.41;2062617;28;20042;-51
2022/09/16 02:59:30;;;;;;;4.15;1.58;;;;;;;26.13;57.39;97867.03;2061962;28;20054;-56
2022/09/16 03:00:35;;;;;;;3.50;1.85;;;;;;;26.15;57.76;97864.88;2062714;28;20719;-50
2022/09/16 03:01:40;;;;;;;2.75;1.58;;;;;;;26.15;57.50;97866.78;2061828;28;21537;-54
2022/09/16 03:02:43;;;;;;;3.72;1.92;;;;;;;26.17;57.54;97872.78;2060837;28;20050;-56
2022/09/16 03:03:45;;;;;;;3.47;2.10;;;;;;;26.15;57.80;97867.59;2059417;28;20050;-53
2022/09/16 03:04:46;;;;;;;3.75;1.65;;;;;;;26.15;57.27;97870.31;2061796;28;20171;-51
2022/09/16 03:06:13;;;;;;;6.80;1.63;;;;;;;26.12;57.47;97865.44;2061376;28;20046;-48
2022/09/16 03:07:16;;;;;;;5.93;2.08;;;;;;;26.10;57.92;97870.31;2060496;28;20050;-54
2022/09/16 03:08:16;;;;;;;4.30;1.60;;;;;;;26.13;57.57;97872.47;2061894;28;20141;-52
2022/09/16 03:09:22;;;;;;;7.22;1.88;;;;;;;26.16;57.32;97876.56;2062566;28;20049;-52
2022/09/16 03:10:26;;;;;;;3.88;1.83;;;;;;;26.14;57.71;97874.13;2064017;28;20605;-53
2022/09/16 03:11:55;;;;;;;5.38;1.75;;;;;;;26.07;57.89;97866.22;2062138;28;20073;-56
2022/09/16 03:13:07;;;;;;;4.18;2.17;;;;;;;26.08;57.82;97867.88;2058318;28;20084;-54
2022/09/16 03:14:29;;;;;;;6.20;1.50;;;;;;;26.09;57.87;97871.41;2059918;28;20118;-51
2022/09/16 03:15:42;;;;;;;4.82;2.03;;;;;;;26.10;57.57;97867.59;2057929;28;20564;-55
2022/09/16 03:16:51;;;;;;;6.82;2.20;;;;;;;26.10;57.59;97866.78;2059895;28;20077;-54
2022/09/16 03:18:19;;;;;;;1.88;1.50;;;;;;;26.10;57.90;97866.78;2058212;28;20054;-50
2022/09/16 03:19:27;;;;;;;3.90;1.80;;;;;;;26.11;57.59;97865.72;2061092;28;20186;-50
2022/09/16 03:20:38;;;;;;;4.32;2.13;;;;;;;26.11;57.57;97871.16;2060872;28;20051;-53
2022/09/16 03:21:48;;;;;;;4.85;1.67;;;;;;;26.10;57.79;97869.50;2062418;28;20043;-56
2022/09/16 03:22:59;;;;;;;4.18;1.63;;;;;;;26.11;57.68;97863.00;2062411;28;20068;-54
2022/09/16 03:24:10;;;;;;;6.13;1.80;;;;;;;26.12;57.30;97870.06;2060849;28;20110;-56
2022/09/16 03:25:22;;;;;;;2.05;1.63;;;;;;;26.12;57.29;97864.63;2061305;28;20039;-49
2022/09/16 03:26:31;;;;;;;3.97;1.38;;;;;;;26.11;57.20;97858.38;2060951;28;20053;-53
2022/09/16 03:27:37;;;;;;;4.78;1.80;;;;;;;26.12;57.72;97859.19;2062119;28;20046;-54
2022/09/16 03:28:48;;;;;;;3.53;1.40;;;;;;;26.10;57.27;97858.63;2060784;28;20046;-53
2022/09/16 03:29:55;;;;;;;3.00;1.40;;;;;;;26.10;57.03;97858.63;2061064;28;20828;-54
2022/09/16 03:31:02;;;;;;;6.40;1.95;;;;;;;26.12;56.92;97861.91;2061679;28;20057;-55
2022/09/16 03:32:09;;;;;;;2.72;1.77;;;;;;;26.13;56.99;97858.09;2060921;28;20083;-52
2022/09/16 03:33:23;;;;;;;4.07;1.50;;;;;;;26.10;57.03;97855.91;2064239;28;20125;-52
2022/09/16 03:34:29;;;;;;;3.95;1.50;;;;;;;26.08;57.77;97864.34;2061448;28;20058;-55
2022/09/16 03:35:38;;;;;;;3.65;1.60;;;;;;;26.10;57.41;97855.91;2063428;28;20052;-54
2022/09/16 03:36:44;;;;;;;3.45;1.77;;;;;;;26.10;57.23;97862.16;2058790;28;20054;-52
2022/09/16 03:37:46;;;;;;;3.88;1.40;;;;;;;26.12;57.40;97859.19;2061047;28;20069;-54
2022/09/16 03:38:48;;;;;;;2.67;1.75;;;;;;;26.07;57.71;97858.06;2060566;28;20047;-55
2022/09/16 03:39:52;;;;;;;4.35;1.92;;;;;;;26.10;56.84;97854.00;2057362;28;20058;-54
2022/09/16 03:40:54;;;;;;;5.18;2.75;;;;;;;26.07;57.15;97857.25;2063476;28;20088;-51
2022/09/16 03:41:59;;;;;;;8.05;2.17;;;;;;;26.03;56.68;97865.16;2064356;28;20525;-51
2022/09/16 03:43:10;;;;;;;3.22;1.70;;;;;;;26.06;57.04;97867.34;2059496;28;20054;-54
2022/09/16 03:44:11;;;;;;;4.28;1.63;;;;;;;26.07;56.87;97849.13;2061870;28;22174;-52
2022/09/16 03:45:16;;;;;;;3.72;1.92;;;;;;;26.10;56.66;97859.44;2058026;28;20073;-51
2022/09/16 03:46:16;;;;;;;6.82;1.80;;;;;;;26.05;56.50;97849.41;2052295;28;20089;-53
2022/09/16 03:47:18;;;;;;;2.75;1.48;;;;;;;26.05;56.27;97849.41;2060356;28;21741;-56
2022/09/16 03:48:20;;;;;;;4.25;1.33;;;;;;;26.06;56.38;97845.59;2061325;28;20495;-55
2022/09/16 03:49:22;;;;;;;8.00;1.95;;;;;;;26.06;56.63;97842.88;2060712;28;20042;-55
2022/09/16 03:50:23;;;;;;;5.43;2.15;;;;;;;26.08;56.77;97843.41;2060680;28;20062;-54
2022/09/16 03:51:25;;;;;;;5.88;1.65;;;;;;;26.08;56.50;97842.63;2060682;28;20062;-51
2022/09/16 03:52:25;;;;;;;4.72;1.58;;;;;;;26.07;56.34;97840.97;2060242;28;20050;-51
2022/09/16 03:53:27;;;;;;;6.60;2.88;;;;;;;26.06;55.90;97840.16;2061858;28;20050;-52
2022/09/16 03:54:28;;;;;;;3.08;1.50;;;;;;;26.05;56.20;97849.41;2061455;28;20057;-49
2022/09/16 03:55:30;;;;;;;6.85;1.73;;;;;;;26.03;56.11;97848.84;2060172;28;20050;-55
2022/09/16 03:56:30;;;;;;;6.05;1.38;;;;;;;26.04;56.29;97836.06;2058768;28;20449;-51
2022/09/16 03:57:32;;;;;;;4.53;2.38;;;;;;;26.05;56.22;97843.16;2061461;28;20053;-49
2022/09/16 03:58:33;;;;;;;4.28;1.60;;;;;;;26.06;56.49;97842.88;2059858;28;20539;-51
2022/09/16 03:59:34;;;;;;;6.88;2.13;;;;;;;26.06;56.11;97839.34;2057652;28;20113;-57
2022/09/16 04:00:35;;;;;;;3.20;1.42;;;;;;;26.04;56.48;97836.88;2056801;28;20587;-55
2022/09/16 04:01:37;;;;;;;2.78;1.63;;;;;;;26.05;55.98;97833.09;2060055;28;20046;-55
2022/09/16 04:02:38;;;;;;;4.07;1.73;;;;;;;26.06;56.08;97828.47;2062032;28;20054;-54
2022/09/16 04:03:41;;;;;;;4.55;1.92;;;;;;;26.03;55.74;97829.84;2057790;28;20526;-51
2022/09/16 04:04:42;;;;;;;6.32;2.45;;;;;;;25.96;56.17;97834.72;2060983;28;20081;-57
2022/09/16 04:05:44;;;;;;;5.95;1.38;;;;;;;25.97;56.77;97836.34;2061249;28;20046;-56
2022/09/16 04:06:44;;;;;;;3.00;1.65;;;;;;;25.97;55.95;97839.06;2061344;28;20046;-54
2022/09/16 04:07:49;;;;;;;11.98;1.85;;;;;;;25.98;56.05;97834.44;2060019;28;20160;-52
2022/09/16 04:08:50;;;;;;;3.97;1.60;;;;;;;25.99;55.82;97836.91;2061663;28;20514;-54
2022/09/16 04:09:52;;;;;;;3.95;1.70;;;;;;;26.01;56.09;97842.88;2058806;28;20089;-56
2022/09/16 04:10:53;;;;;;;5.22;2.08;;;;;;;26.01;56.00;97845.59;2059987;28;20054;-55
2022/09/16 04:11:55;;;;;;;9.52;2.10;;;;;;;25.99;56.33;97847.78;2060021;28;20085;-57
2022/09/16 04:12:57;;;;;;;3.45;1.73;;;;;;;25.99;56.36;97847.78;2061207;28;20108;-50
2022/09/16 04:13:59;;;;;;;3.38;1.55;;;;;;;26.03;55.96;97850.75;2060799;28;20101;-50
2022/09/16 04:15:00;;;;;;;4.65;2.25;;;;;;;26.01;56.11;97851.03;2061699;28;20199;-53
2022/09/16 04:16:02;;;;;;;6.68;1.95;;;;;;;26.02;56.36;97844.50;2061395;28;20525;-50
2022/09/16 04:17:03;;;;;;;6.60;1.92;;;;;;;25.97;55.70;97841.78;2061430;28;20129;-55
2022/09/16 04:18:05;;;;;;;4.90;1.60;;;;;;;25.96;55.85;97853.72;2063571;28;20600;-54
2022/09/16 04:19:09;;;;;;;9.57;1.92;;;;;;;25.98;55.59;97848.03;2060941;28;20059;-55
2022/09/16 04:20:11;;;;;;;7.68;2.28;;;;;;;25.96;56.12;97847.47;2061606;28;20046;-55
2022/09/16 04:21:11;;;;;;;3.33;1.50;;;;;;;25.99;55.70;97853.22;2061357;28;20058;-52
2022/09/16 04:22:13;;;;;;;2.85;1.73;;;;;;;25.97;55.65;97855.38;2061354;28;20054;-54
2022/09/16 04:23:14;;;;;;;5.10;1.67;;;;;;;25.98;55.96;97853.47;2061159;28;20742;-53
2022/09/16 04:24:16;;;;;;;6.30;1.98;;;;;;;25.97;56.03;97847.22;2057610;28;20165;-54
2022/09/16 04:25:17;;;;;;;8.38;2.08;;;;;;;26.01;55.74;97845.59;2057998;28;20483;-50
2022/09/16 04:26:18;;;;;;;2.20;1.38;;;;;;;25.98;55.82;97842.59;2060040;28;20061;-51
2022/09/16 04:27:19;;;;;;;3.03;1.70;;;;;;;26.02;56.16;97849.94;2062609;28;20448;-55
2022/09/16 04:28:21;;;;;;;4.40;1.50;;;;;;;26.02;56.36;97849.09;2058695;28;20077;-56
2022/09/16 04:29:22;;;;;;;6.75;1.92;;;;;;;26.01;55.84;97853.72;2060251;28;20054;-55
2022/09/16 04:30:24;;;;;;;3.20;2.20;;;;;;;26.01;55.90;97837.44;2062647;28;20057;-52
2022/09/16 04:31:24;;;;;;;4.45;1.50;;;;;;;26.02;56.65;97846.38;2061964;28;20596;-51
2022/09/16 04:32:26;;;;;;;2.47;1.50;;;;;;;26.00;56.50;97848.59;2062016;28;20053;-56
2022/09/16 04:33:28;;;;;;;5.78;1.67;;;;;;;25.98;56.88;97843.41;2055879;28;20104;-54
2022/09/16 04:34:31;;;;;;;3.95;1.25;;;;;;;26.02;56.12;97849.09;2058674;28;20648;-60
2022/09/16 04:35:32;;;;;;;2.63;1.83;;;;;;;25.97;55.99;97849.94;2059928;28;20073;-52
2022/09/16 04:36:34;;;;;;;8.50;2.30;;;;;;;25.94;55.91;97853.19;2061950;28;20052;-56
2022/09/16 04:37:35;;;;;;;4.15;1.58;;;;;;;25.94;55.97;97849.69;2050982;28;20454;-52
2022/09/16 04:38:36;;;;;;;3.55;2.17;;;;;;;25.94;56.06;97853.19;2060134;28;20046;-51
2022/09/16 04:39:37;;;;;;;4.55;2.03;;;;;;;25.97;56.60;97858.09;2057971;28;20123;-53
2022/09/16 04:40:39;;;;;;;4.60;1.60;;;;;;;25.96;56.80;97858.34;2064661;28;20112;-52
2022/09/16 04:41:40;;;;;;;4.40;1.55;;;;;;;25.98;56.71;97856.19;2061392;28;20149;-58
2022/09/16 04:42:42;;;;;;;7.25;1.83;;;;;;;25.97;56.34;97862.72;2060796;28;20706;-54
2022/09/16 04:43:42;;;;;;;3.95;1.50;;;;;;;25.97;56.32;97860.00;2060791;28;20058;-51
2022/09/16 04:44:44;;;;;;;3.88;1.40;;;;;;;25.95;55.75;97860.25;2056921;28;20108;-53
2022/09/16 04:45:45;;;;;;;2.10;1.33;;;;;;;25.95;56.11;97857.53;2060559;28;20772;-55
2022/09/16 04:46:46;;;;;;;2.83;1.75;;;;;;;25.99;55.40;97858.66;2059756;28;20050;-52
2022/09/16 04:47:47;;;;;;;3.47;1.70;;;;;;;25.97;55.79;97860.81;2060533;28;20046;-58
2022/09/16 04:48:50;;;;;;;6.15;1.80;;;;;;;25.97;55.65;97857.28;2061475;28;20050;-56
2022/09/16 04:49:52;;;;;;;3.13;1.27;;;;;;;25.97;55.62;97855.38;2062182;28;20046;-54
2022/09/16 04:50:54;;;;;;;8.90;1.70;;;;;;;25.96;56.06;97851.00;2062274;28;20656;-54
2022/09/16 04:51:55;;;;;;;4.90;1.98;;;;;;;25.98;55.95;97848.84;2064462;28;20046;-52
2022/09/16 04:52:56;;;;;;;2.38;1.48;;;;;;;25.96;56.16;97848.28;2060816;28;20046;-54
2022/09/16 04:53:58;;;;;;;4.65;1.60;;;;;;;25.96;56.44;97853.72;2062083;28;20084;-53
2022/09/16 04:55:00;;;;;;;4.95;1.70;;;;;;;25.97;56.04;97849.94;2064450;28;20084;-52
2022/09/16 04:56:05;;;;;;;3.90;1.52;;;;;;;25.99;56.20;97852.38;2060387;28;20120;-52
2022/09/16 04:57:07;;;;;;;2.92;1.60;;;;;;;25.98;56.38;97857.00;2060081;28;20054;-56
2022/09/16 04:58:08;;;;;;;2.33;1.10;;;;;;;26.00;56.25;97859.47;2063555;28;20160;-51
2022/09/16 04:59:10;;;;;;;4.47;2.70;;;;;;;25.98;56.16;97858.91;2061343;28;21082;-52
2022/09/16 05:00:11;;;;;;;5.40;1.63;;;;;;;25.98;56.20;97858.91;2057079;28;20041;-55
2022/09/16 05:01:16;;;;;;;3.75;1.27;;;;;;;25.96;56.72;97856.44;2059374;28;22173;-57
2022/09/16 05:02:17;;;;;;;2.92;2.08;;;;;;;25.98;56.68;97857.00;2060377;28;20407;-53
2022/09/16 05:03:18;;;;;;;2.55;1.40;;;;;;;25.98;56.40;97857.00;2050748;28;20060;-51
2022/09/16 05:04:19;;;;;;;3.00;1.40;;;;;;;25.95;56.73;97856.72;2056833;28;20495;-53
2022/09/16 05:05:22;;;;;;;5.47;1.77;;;;;;;25.96;56.64;97864.59;2059587;28;20127;-52
2022/09/16 05:06:26;;;;;;;3.95;1.20;;;;;;;25.97;56.35;97851.84;2059368;28;20057;-52